Time;durP1;ratioP1;P1;durP2;ratioP2;P2;SDS_P1;SDS_P2;PMS_P1;PMS_P2;Temp;Humidity;BMP_temperature;BMP_pressure;BME280_temperature;BME280_humidity;BME280_pressure;Samples;Min_cycle;Max_cycle;Signal;HPM_P1;HPM_P2
2022/05/16 00:00:26;;;;;;;8.88;3.95;;;17.10;79.80;;;;;;5030348;28;20340;-73
2022/05/16 00:02:55;;;;;;;7.55;3.80;;;17.10;79.80;;;;;;5030537;28;20049;-74
2022/05/16 00:05:22;;;;;;;7.00;3.70;;;17.10;79.80;;;;;;5034683;28;20045;-73
2022/05/16 00:07:49;;;;;;;6.82;4.15;;;17.10;80.30;;;;;;5035749;28;20037;-73
2022/05/16 00:10:17;;;;;;;6.57;3.60;;;17.10;80.40;;;;;;5032521;28;20118;-73
2022/05/16 00:12:44;;;;;;;7.78;4.00;;;17.10;80.60;;;;;;5035997;28;20037;-73
2022/05/16 00:15:13;;;;;;;11.07;4.18;;;17.10;80.70;;;;;;5032908;28;20049;-73
2022/05/16 00:17:40;;;;;;;6.80;3.80;;;17.10;81.40;;;;;;5034926;28;20683;-73
2022/05/16 00:20:09;;;;;;;9.07;4.03;;;17.10;80.90;;;;;;5049218;28;20044;-73
2022/05/16 00:22:36;;;;;;;8.10;4.05;;;17.00;80.50;;;;;;5034247;28;20037;-73
2022/05/16 00:25:06;;;;;;;7.93;3.72;;;17.10;80.60;;;;;;5033989;28;20599;-73
2022/05/16 00:27:34;;;;;;;7.78;3.83;;;17.10;80.40;;;;;;5032033;28;20059;-73
2022/05/16 00:30:06;;;;;;;9.30;4.03;;;17.10;80.30;;;;;;5068137;28;20041;-73
2022/05/16 00:32:33;;;;;;;6.57;3.83;;;17.10;80.50;;;;;;5033549;28;20503;-73
2022/05/16 00:35:01;;;;;;;6.72;3.40;;;17.10;80.50;;;;;;5035246;28;20557;-73
2022/05/16 00:37:28;;;;;;;5.55;3.03;;;17.10;78.50;;;;;;5035768;28;20098;-73
2022/05/16 00:39:55;;;;;;;4.63;2.55;;;17.10;76.40;;;;;;5035128;28;20040;-74
2022/05/16 00:42:22;;;;;;;4.20;2.90;;;17.10;75.30;;;;;;5018763;28;20071;-74
2022/05/16 00:44:49;;;;;;;5.60;2.40;;;17.00;74.20;;;;;;5034068;28;20536;-73
2022/05/16 00:47:16;;;;;;;8.82;2.65;;;16.90;74.50;;;;;;5035847;28;20048;-74
2022/05/16 00:49:47;;;;;;;7.22;2.55;;;17.00;74.00;;;;;;5031818;28;20037;-74
2022/05/16 00:52:19;;;;;;;4.63;2.33;;;16.90;73.40;;;;;;5033670;28;20148;-73
2022/05/16 00:54:50;;;;;;;4.93;2.40;;;16.90;73.40;;;;;;5035191;28;20049;-73
2022/05/16 00:57:20;;;;;;;4.97;2.65;;;16.90;74.20;;;;;;5037381;28;20796;-74
2022/05/16 01:00:15;;;;;;;8.70;2.78;;;17.10;75.20;;;;;;5034586;28;20444;-73
2022/05/16 01:05:34;;;;;;;6.95;2.55;;;17.10;74.60;;;;;;5037307;28;20052;-73
2022/05/16 01:08:12;;;;;;;5.50;2.60;;;17.00;73.70;;;;;;5032263;28;20045;-73
2022/05/16 01:10:39;;;;;;;4.70;2.13;;;17.00;75.00;;;;;;5032885;28;20041;-73
2022/05/16 01:13:07;;;;;;;6.05;2.85;;;17.00;75.30;;;;;;5049211;28;20044;-73
2022/05/16 01:15:39;;;;;;;7.13;2.75;;;16.90;73.90;;;;;;5034790;28;20034;-73
2022/05/16 01:18:08;;;;;;;6.80;3.17;;;16.90;75.40;;;;;;5036020;28;20037;-73
2022/05/16 01:21:03;;;;;;;5.80;2.65;;;16.90;76.30;;;;;;5040073;28;20053;-74
2022/05/16 01:23:49;;;;;;;7.88;2.92;;;16.90;77.10;;;;;;5031896;28;20045;-73
2022/05/16 01:26:24;;;;;;;8.10;3.33;;;16.80;75.80;;;;;;5035049;28;20395;-73
2022/05/16 01:28:56;;;;;;;6.63;2.90;;;16.80;75.60;;;;;;5032278;28;20053;-73
2022/05/16 01:31:23;;;;;;;6.80;2.83;;;16.70;75.50;;;;;;5036676;28;20059;-73
2022/05/16 01:33:53;;;;;;;7.40;3.13;;;16.70;76.50;;;;;;5050550;28;20033;-73
2022/05/16 01:36:20;;;;;;;5.88;2.65;;;16.70;76.90;;;;;;5038643;28;20440;-73
2022/05/16 01:38:47;;;;;;;6.55;3.15;;;16.70;78.10;;;;;;5038426;28;20041;-73
2022/05/16 01:41:17;;;;;;;7.63;3.45;;;16.60;76.00;;;;;;5037123;28;20059;-73
2022/05/16 01:43:49;;;;;;;8.57;3.13;;;16.60;75.70;;;;;;5035571;28;20542;-73
2022/05/16 01:46:20;;;;;;;;;;;16.60;75.50;;;;;;5039479;28;20044;-73
2022/05/16 01:48:48;;;;;;;5.78;3.25;;;16.60;74.60;;;;;;5035183;28;19924;-74
2022/05/16 01:51:15;;;;;;;6.70;2.83;;;16.60;74.40;;;;;;5036687;28;20045;-73
2022/05/16 01:53:43;;;;;;;5.63;3.33;;;16.50;74.30;;;;;;5037005;28;20488;-73
2022/05/16 01:56:10;;;;;;;4.55;3.15;;;16.50;74.20;;;;;;5032809;28;20126;-73
2022/05/16 01:58:40;;;;;;;7.13;3.20;;;16.50;75.60;;;;;;5036082;28;20037;-73
2022/05/16 02:01:08;;;;;;;13.13;4.13;;;16.50;75.40;;;;;;5019850;28;20041;-73
2022/05/16 02:03:46;;;;;;;8.10;2.67;;;16.50;74.20;;;;;;5034017;28;20053;-74
2022/05/16 02:06:13;;;;;;;4.97;3.00;;;16.40;74.30;;;;;;5035754;28;20053;-74
2022/05/16 02:08:41;;;;;;;6.10;3.15;;;16.30;74.30;;;;;;5037036;28;20045;-73
2022/05/16 02:11:08;;;;;;;6.95;3.05;;;16.40;74.50;;;;;;5037368;28;20037;-73
2022/05/16 02:13:38;;;;;;;7.32;2.70;;;16.40;74.20;;;;;;5034239;28;20052;-73
2022/05/16 02:16:06;;;;;;;11.13;2.80;;;16.40;74.00;;;;;;5035961;28;20033;-73
2022/05/16 02:18:34;;;;;;;6.10;3.08;;;16.50;74.20;;;;;;5033610;28;20037;-73
2022/05/16 02:26:33;;;;;;;9.13;3.10;;;16.20;74.70;;;;;;5052459;28;20941;-73
2022/05/16 02:29:00;;;;;;;5.30;2.75;;;16.10;74.90;;;;;;5050404;28;20059;-74
2022/05/16 02:31:27;;;;;;;4.28;2.50;;;15.90;75.70;;;;;;5035503;28;20055;-74
2022/05/16 02:33:54;;;;;;;8.02;3.20;;;16.00;76.70;;;;;;5050080;28;20049;-73
2022/05/16 02:36:21;;;;;;;6.80;2.33;;;15.90;75.20;;;;;;5034728;28;20049;-74
2022/05/16 02:38:48;;;;;;;6.90;2.35;;;15.90;74.90;;;;;;5053568;28;20077;-74
2022/05/16 02:41:15;;;;;;;7.32;2.47;;;16.00;74.60;;;;;;5035333;28;20048;-74
2022/05/16 02:43:42;;;;;;;5.22;2.55;;;15.90;75.00;;;;;;5036805;28;20037;-73
2022/05/16 02:46:09;;;;;;;6.03;3.03;;;15.80;75.50;;;;;;5039188;28;20034;-73
2022/05/16 02:48:36;;;;;;;5.03;2.53;;;15.90;76.20;;;;;;5034805;28;20040;-74
2022/05/16 02:51:03;;;;;;;4.32;2.58;;;15.90;76.00;;;;;;5016861;28;20068;-73
2022/05/16 02:53:30;;;;;;;4.15;2.83;;;16.00;76.10;;;;;;5037856;28;20436;-74
2022/05/16 02:55:57;;;;;;;6.72;2.72;;;16.00;75.90;;;;;;5050078;28;20633;-73
2022/05/16 02:58:24;;;;;;;8.00;2.40;;;16.00;75.70;;;;;;5037041;28;20048;-73
2022/05/16 03:00:52;;;;;;;5.97;2.60;;;16.10;77.60;;;;;;5035343;28;20497;-73
2022/05/16 03:03:19;;;;;;;8.27;3.28;;;16.10;75.60;;;;;;5031742;28;20468;-73
2022/05/16 03:05:47;;;;;;;5.80;2.60;;;16.10;75.60;;;;;;5035842;28;20544;-73
2022/05/16 03:08:13;;;;;;;6.32;3.10;;;16.00;75.60;;;;;;5035895;28;20321;-73
2022/05/16 03:10:41;;;;;;;7.40;3.05;;;15.90;76.10;;;;;;5034823;28;20045;-73
2022/05/16 03:13:08;;;;;;;7.03;2.92;;;16.00;76.30;;;;;;5030225;28;20516;-73
2022/05/16 03:15:35;;;;;;;9.38;2.70;;;15.90;76.40;;;;;;5036590;28;20044;-73
2022/05/16 03:18:02;;;;;;;5.03;2.75;;;15.90;76.20;;;;;;5051984;28;20060;-73
2022/05/16 03:20:30;;;;;;;6.30;2.95;;;15.90;77.10;;;;;;5035279;28;20041;-73
2022/05/16 03:22:57;;;;;;;5.45;2.80;;;15.90;77.50;;;;;;5034682;28;20044;-73
2022/05/16 03:25:24;;;;;;;5.85;2.70;;;15.90;78.00;;;;;;5036232;28;20053;-73
2022/05/16 03:27:51;;;;;;;6.40;2.55;;;15.90;78.90;;;;;;5036719;28;20465;-73
2022/05/16 03:30:19;;;;;;;5.10;2.35;;;15.90;78.50;;;;;;5033717;28;20055;-73
2022/05/16 03:32:48;;;;;;;7.40;2.75;;;15.90;79.00;;;;;;5034131;28;20116;-74
2022/05/16 03:35:15;;;;;;;7.03;2.72;;;15.90;79.20;;;;;;5035399;28;20158;-73
2022/05/16 03:37:42;;;;;;;6.35;2.75;;;15.90;79.50;;;;;;5036634;28;20162;-73
2022/05/16 03:42:56;;;;;;;13.02;4.00;;;16.00;78.40;;;;;;5048776;28;20056;-73
2022/05/16 03:45:23;;;;;;;7.75;2.88;;;16.10;79.60;;;;;;5034720;28;20048;-74
2022/05/16 03:47:50;;;;;;;8.05;3.45;;;16.10;77.20;;;;;;5035164;28;20792;-73
2022/05/16 03:50:18;;;;;;;6.78;3.17;;;16.20;78.90;;;;;;5036992;28;20041;-73
2022/05/16 03:52:45;;;;;;;7.75;3.50;;;16.20;78.20;;;;;;5034165;28;20077;-74
2022/05/16 03:55:15;;;;;;;5.53;3.78;;;16.20;77.10;;;;;;5035838;28;20594;-73
2022/05/16 03:57:43;;;;;;;7.40;2.97;;;16.20;77.40;;;;;;5034158;28;20037;-73
2022/05/16 04:00:14;;;;;;;7.35;3.00;;;16.30;77.40;;;;;;5044284;28;20052;-74
2022/05/16 04:02:42;;;;;;;9.45;2.85;;;16.30;75.80;;;;;;5027812;28;20518;-74
2022/05/16 04:05:15;;;;;;;5.78;2.65;;;16.30;74.90;;;;;;5048986;28;20040;-74
2022/05/16 04:07:42;;;;;;;9.00;3.03;;;16.40;74.50;;;;;;5034848;28;20055;-74
2022/05/16 04:10:10;;;;;;;5.60;2.97;;;16.50;74.50;;;;;;5032600;28;20044;-73
2022/05/16 04:12:37;;;;;;;6.50;2.58;;;16.60;73.70;;;;;;5035387;28;20431;-74
2022/05/16 04:15:06;;;;;;;4.68;2.53;;;16.60;73.30;;;;;;5033808;28;20056;-74
2022/05/16 04:17:34;;;;;;;6.53;2.50;;;16.60;73.10;;;;;;5050078;28;20037;-74
2022/05/16 04:20:01;;;;;;;7.88;2.70;;;16.70;73.40;;;;;;5031372;28;20056;-74
2022/05/16 04:22:30;;;;;;;7.07;2.33;;;16.70;72.50;;;;;;5066932;28;20059;-73
2022/05/16 04:24:58;;;;;;;7.20;2.58;;;16.70;72.30;;;;;;5032560;28;20060;-74
2022/05/16 04:27:25;;;;;;;5.03;2.45;;;16.80;72.10;;;;;;5034524;28;20526;-73
2022/05/16 04:29:52;;;;;;;3.97;2.30;;;16.90;72.10;;;;;;5033193;28;20573;-75
2022/05/16 04:32:19;;;;;;;7.93;2.50;;;17.00;71.90;;;;;;5050090;28;20041;-74
2022/05/16 04:34:46;;;;;;;6.18;1.85;;;17.00;71.20;;;;;;5029980;28;20068;-74
2022/05/16 04:37:13;;;;;;;5.68;2.20;;;17.00;71.00;;;;;;5034650;28;20044;-73
2022/05/16 04:39:40;;;;;;;5.10;2.50;;;17.10;72.20;;;;;;5032091;28;20088;-74
2022/05/16 04:44:54;;;;;;;4.28;1.77;;;17.20;71.50;;;;;;5046376;28;20067;-74
2022/05/16 04:47:21;;;;;;;3.38;1.70;;;17.20;71.00;;;;;;5065297;28;20132;-74
2022/05/16 04:49:48;;;;;;;2.53;1.83;;;17.30;70.40;;;;;;5034283;28;20525;-74
2022/05/16 04:52:15;;;;;;;6.25;2.08;;;17.30;69.40;;;;;;5033519;28;20041;-73
2022/05/16 04:54:42;;;;;;;4.28;1.70;;;17.30;69.10;;;;;;5050367;28;20432;-74
2022/05/16 04:57:09;;;;;;;5.65;1.77;;;17.40;69.70;;;;;;5037227;28;20391;-74
2022/05/16 04:59:36;;;;;;;4.38;1.52;;;17.40;68.80;;;;;;5031660;28;20202;-74
2022/05/16 05:02:03;;;;;;;4.90;1.35;;;17.40;68.10;;;;;;5014438;28;20120;-74
2022/05/16 05:04:31;;;;;;;4.50;1.10;;;17.60;67.70;;;;;;5029419;28;20064;-75
2022/05/16 05:06:58;;;;;;;3.55;1.30;;;17.60;67.70;;;;;;5011352;28;20423;-73
2022/05/16 05:09:25;;;;;;;5.03;1.58;;;17.60;67.60;;;;;;4997169;28;20049;-74
2022/05/16 05:14:41;;;;;;;10.52;1.52;;;17.80;67.60;;;;;;4993033;28;20895;-74
2022/05/16 05:17:11;;;;;;;4.90;1.08;;;17.90;67.20;;;;;;4995055;28;20044;-74
2022/05/16 05:19:42;;;;;;;2.97;1.33;;;18.10;66.70;;;;;;5011465;28;20045;-74
2022/05/16 05:22:09;;;;;;;4.53;0.90;;;18.20;67.70;;;;;;4996454;28;20115;-73
2022/05/16 05:24:36;;;;;;;2.88;0.85;;;18.10;65.80;;;;;;5011505;28;20083;-74
2022/05/16 05:27:04;;;;;;;5.72;1.60;;;18.20;66.00;;;;;;4996284;28;20158;-74
2022/05/16 05:29:31;;;;;;;5.45;1.20;;;18.20;65.90;;;;;;5008933;28;22194;-74
2022/05/16 05:31:59;;;;;;;2.22;0.82;;;18.10;64.40;;;;;;4995020;28;20041;-74
2022/05/16 05:34:26;;;;;;;3.75;1.00;;;18.10;64.60;;;;;;4994029;28;20045;-74
2022/05/16 05:36:53;;;;;;;3.13;0.98;;;18.10;65.10;;;;;;4998892;28;20985;-74
2022/05/16 05:39:20;;;;;;;5.55;0.82;;;18.30;62.60;;;;;;4996671;28;20056;-74
2022/05/16 05:41:47;;;;;;;7.32;0.88;;;18.60;62.10;;;;;;4994966;28;20049;-74
2022/05/16 05:44:14;;;;;;;5.93;1.35;;;19.00;62.10;;;;;;4997141;28;20111;-74
2022/05/16 05:46:42;;;;;;;5.60;1.85;;;19.10;60.20;;;;;;4993862;28;20844;-74
2022/05/16 05:49:11;;;;;;;2.53;0.88;;;19.30;59.00;;;;;;5007659;28;20056;-74
2022/05/16 05:51:39;;;;;;;3.05;0.85;;;19.40;59.70;;;;;;4997541;28;20045;-75
2022/05/16 05:54:06;;;;;;;2.65;0.70;;;19.60;59.90;;;;;;5003922;28;20827;-75
2022/05/16 05:56:34;;;;;;;4.03;0.60;;;19.80;60.50;;;;;;4996203;28;20052;-73
2022/05/16 05:59:01;;;;;;;5.07;0.88;;;20.10;59.30;;;;;;4997392;28;20108;-74
2022/05/16 06:01:28;;;;;;;4.18;0.70;;;20.20;56.50;;;;;;5005908;28;20084;-74
2022/05/16 06:03:55;;;;;;;2.22;0.90;;;20.20;56.20;;;;;;5011730;28;20127;-74
2022/05/16 06:06:23;;;;;;;2.13;0.77;;;20.20;55.10;;;;;;4994154;28;20091;-75
2022/05/16 06:08:50;;;;;;;6.72;0.70;;;20.30;57.00;;;;;;5010046;28;22559;-75
2022/05/16 06:11:17;;;;;;;2.85;0.50;;;20.50;57.60;;;;;;4987714;28;20656;-75
2022/05/16 06:13:44;;;;;;;4.32;0.52;;;20.80;56.80;;;;;;4995474;28;20053;-73
2022/05/16 06:16:11;;;;;;;2.47;0.60;;;21.10;57.80;;;;;;4992262;28;20993;-76
2022/05/16 06:18:39;;;;;;;5.55;0.70;;;21.00;54.50;;;;;;4996961;28;20052;-74
2022/05/16 06:21:06;;;;;;;2.65;0.80;;;21.10;54.70;;;;;;4993359;28;21947;-74
2022/05/16 06:23:33;;;;;;;4.07;0.95;;;20.90;55.90;;;;;;4996679;28;20053;-75
2022/05/16 06:26:00;;;;;;;3.42;0.80;;;20.70;54.80;;;;;;4994222;28;20045;-74
2022/05/16 06:28:29;;;;;;;3.13;0.63;;;20.50;54.80;;;;;;5012165;28;20068;-75
2022/05/16 06:30:56;;;;;;;3.72;1.10;;;20.30;55.40;;;;;;4992134;28;20137;-75
2022/05/16 06:33:29;;;;;;;2.60;1.08;;;20.30;56.20;;;;;;4994250;28;20771;-74
2022/05/16 06:35:57;;;;;;;4.32;0.70;;;20.10;56.40;;;;;;4993816;28;20701;-75
2022/05/16 06:38:31;;;;;;;2.92;0.57;;;20.50;55.40;;;;;;5025450;28;20060;-74
2022/05/16 06:40:59;;;;;;;3.28;0.77;;;20.80;56.00;;;;;;4995769;28;20641;-74
2022/05/16 06:43:28;;;;;;;4.45;0.85;;;21.00;55.90;;;;;;4993591;28;20049;-74
2022/05/16 06:45:55;;;;;;;2.78;0.75;;;21.10;54.90;;;;;;4992344;28;20049;-74
2022/05/16 06:48:23;;;;;;;4.05;0.55;;;21.20;53.40;;;;;;5025736;28;20102;-75
2022/05/16 06:50:51;;;;;;;4.78;0.45;;;21.10;54.30;;;;;;4991243;28;20048;-76
2022/05/16 06:53:28;;;;;;;4.43;1.23;;;21.20;53.00;;;;;;4995400;28;20052;-73
2022/05/16 06:55:56;;;;;;;6.40;0.70;;;21.60;54.70;;;;;;4993005;28;20121;-74
2022/05/16 06:58:24;;;;;;;4.22;0.70;;;21.80;54.40;;;;;;4990530;28;21853;-75
2022/05/16 07:00:51;;;;;;;3.80;0.68;;;21.90;52.60;;;;;;4989180;28;20491;-74
2022/05/16 07:03:19;;;;;;;5.30;1.15;;;21.90;52.00;;;;;;4993032;28;20142;-76
2022/05/16 07:05:48;;;;;;;3.65;0.70;;;22.00;52.20;;;;;;4993505;28;20048;-76
2022/05/16 07:08:17;;;;;;;5.43;1.42;;;22.10;52.30;;;;;;4989789;28;20049;-74
2022/05/16 07:10:46;;;;;;;5.45;0.95;;;22.30;52.00;;;;;;4989452;28;20056;-75
2022/05/16 07:13:20;;;;;;;5.75;1.10;;;22.30;53.00;;;;;;4990276;28;20435;-74
2022/05/16 07:15:47;;;;;;;6.05;1.17;;;22.00;53.60;;;;;;4995296;28;20044;-73
2022/05/16 07:18:14;;;;;;;2.70;0.82;;;22.10;54.10;;;;;;4995615;28;20056;-74
2022/05/16 07:20:41;;;;;;;3.47;0.82;;;22.50;54.00;;;;;;5004198;28;20041;-74
2022/05/16 07:23:08;;;;;;;2.38;0.70;;;22.50;52.20;;;;;;5004505;28;20423;-75
2022/05/16 07:28:22;;;;;;;3.65;0.98;;;22.80;53.40;;;;;;5024341;28;20652;-75
2022/05/16 07:30:51;;;;;;;2.13;0.90;;;23.00;52.30;;;;;;4992511;28;20049;-75
2022/05/16 07:33:19;;;;;;;4.18;1.00;;;23.00;51.50;;;;;;5009449;28;22081;-76
2022/05/16 07:35:52;;;;;;;6.80;1.02;;;23.00;51.10;;;;;;4994332;28;20056;-74
2022/05/16 07:38:23;;;;;;;4.88;1.05;;;23.10;51.10;;;;;;4994844;28;20059;-74
2022/05/16 07:40:50;;;;;;;11.77;1.20;;;23.20;51.70;;;;;;4995395;28;20052;-75
2022/05/16 07:43:18;;;;;;;3.25;0.80;;;23.40;51.00;;;;;;4990285;28;20111;-74
2022/05/16 07:45:46;;;;;;;3.55;1.05;;;23.40;51.70;;;;;;4996088;28;20041;-74
2022/05/16 07:48:14;;;;;;;7.78;1.05;;;23.30;50.60;;;;;;4989856;28;20049;-74
2022/05/16 07:50:42;;;;;;;9.05;1.88;;;23.30;52.70;;;;;;4995479;28;20523;-74
2022/05/16 07:53:11;;;;;;;6.28;1.17;;;23.10;51.80;;;;;;4994798;28;20179;-74
2022/05/16 07:55:49;;;;;;;3.60;0.93;;;23.30;53.00;;;;;;4993835;28;20723;-75
2022/05/16 07:58:16;;;;;;;12.20;3.60;;;23.20;51.10;;;;;;4971128;28;20053;-75
2022/05/16 08:00:43;;;;;;;4.30;1.20;;;23.30;51.30;;;;;;5002418;28;20052;-75
2022/05/16 08:03:19;;;;;;;4.10;0.93;;;23.00;51.40;;;;;;5006378;28;21984;-74
2022/05/16 08:05:47;;;;;;;3.35;1.02;;;23.20;51.00;;;;;;4993132;28;20044;-74
2022/05/16 08:11:01;;;;;;;5.80;1.05;;;23.90;50.80;;;;;;4993433;28;20808;-74
2022/05/16 08:13:29;;;;;;;4.90;0.90;;;23.80;50.40;;;;;;4994030;28;20051;-75
2022/05/16 08:15:56;;;;;;;4.45;1.15;;;23.50;49.60;;;;;;4974873;28;20183;-75
2022/05/16 08:18:24;;;;;;;2.90;0.90;;;23.20;50.90;;;;;;4994964;28;20092;-75
2022/05/16 08:20:51;;;;;;;6.90;2.13;;;23.10;52.10;;;;;;4992195;28;20055;-76
2022/05/16 08:23:27;;;;;;;5.72;1.10;;;23.30;51.80;;;;;;4992407;28;20048;-76
2022/05/16 08:25:55;;;;;;;4.43;1.00;;;23.50;51.30;;;;;;4992341;28;20045;-75
2022/05/16 08:28:22;;;;;;;4.32;1.30;;;23.50;50.40;;;;;;5006431;28;20087;-74
2022/05/16 08:30:51;;;;;;;8.60;1.60;;;23.60;51.10;;;;;;4993523;28;20048;-75
2022/05/16 08:33:18;;;;;;;3.00;1.20;;;23.60;50.90;;;;;;4989487;28;22326;-75
2022/05/16 08:39:51;;;;;;;3.78;1.25;;;23.80;50.70;;;;;;4994862;28;20045;-74
2022/05/16 08:41:23;;;;;;;5.85;1.27;;;24.00;51.40;;;;;;4999697;28;21141;-74
2022/05/16 08:43:54;;;;;;;4.30;1.40;;;24.00;50.90;;;;;;4997916;28;20866;-75
2022/05/16 08:46:45;;;;;;;6.32;1.63;;;24.10;51.50;;;;;;4995654;28;22150;-75
2022/05/16 08:49:41;;;;;;;5.43;1.27;;;24.30;50.90;;;;;;4989022;28;20053;-75
2022/05/16 08:52:39;;;;;;;3.78;1.52;;;24.40;50.30;;;;;;4993011;28;20171;-75
2022/05/16 08:55:28;;;;;;;4.43;1.10;;;24.50;50.00;;;;;;5005923;28;21798;-75
2022/05/16 08:58:01;;;;;;;5.78;1.50;;;24.50;50.70;;;;;;4993983;28;20045;-75
2022/05/16 09:00:41;;;;;;;10.40;1.60;;;24.40;49.70;;;;;;4992878;28;20091;-76
2022/05/16 09:03:13;;;;;;;3.67;1.05;;;24.60;50.40;;;;;;4991997;28;20084;-76
2022/05/16 09:06:05;;;;;;;4.05;1.02;;;24.70;49.10;;;;;;4997426;28;20053;-75
2022/05/16 09:08:52;;;;;;;5.75;1.27;;;24.80;49.00;;;;;;5012431;28;20542;-76
2022/05/16 09:11:25;;;;;;;4.63;0.90;;;24.60;47.30;;;;;;4995568;28;20163;-76
2022/05/16 09:14:34;;;;;;;5.63;0.98;;;24.20;47.20;;;;;;4998129;28;20084;-75
2022/05/16 09:17:08;;;;;;;2.53;1.20;;;24.20;49.60;;;;;;4996555;28;20107;-76
2022/05/16 09:20:05;;;;;;;4.68;1.13;;;24.60;47.90;;;;;;4996977;28;21167;-76
2022/05/16 09:22:48;;;;;;;4.65;1.05;;;24.60;46.60;;;;;;4989930;28;20850;-75
2022/05/16 09:25:32;;;;;;;3.25;1.10;;;24.30;47.90;;;;;;5009932;28;20585;-76
2022/05/16 09:30:48;;;;;;;2.95;0.88;;;24.40;49.90;;;;;;4993724;28;20064;-76
2022/05/16 09:33:26;;;;;;;2.17;1.05;;;24.60;49.00;;;;;;4993342;28;22061;-76
2022/05/16 09:36:21;;;;;;;4.13;0.90;;;24.60;48.50;;;;;;4993321;28;20227;-75
2022/05/16 09:38:48;;;;;;;3.55;1.13;;;24.60;49.00;;;;;;4986584;28;20947;-75
2022/05/16 09:41:21;;;;;;;3.13;0.98;;;24.50;50.30;;;;;;4992599;28;20075;-75
2022/05/16 09:43:58;;;;;;;2.85;0.95;;;24.60;48.60;;;;;;4993728;28;20048;-75
2022/05/16 09:46:39;;;;;;;3.33;1.20;;;24.80;48.40;;;;;;4992303;28;20143;-76
2022/05/16 09:49:13;;;;;;;7.15;1.10;;;25.00;49.90;;;;;;4993509;28;20049;-75
2022/05/16 09:51:53;;;;;;;2.72;1.10;;;25.10;48.30;;;;;;4990748;28;20175;-76
2022/05/16 09:54:35;;;;;;;3.65;1.15;;;25.00;47.50;;;;;;4994548;28;20056;-75
2022/05/16 09:57:03;;;;;;;6.50;1.40;;;25.00;48.20;;;;;;4997785;28;20036;-75
2022/05/16 09:59:36;;;;;;;7.18;1.45;;;25.10;49.30;;;;;;5025539;28;20052;-75
2022/05/16 10:02:27;;;;;;;5.22;1.50;;;25.10;48.70;;;;;;4994287;28;20063;-76
2022/05/16 10:05:23;;;;;;;1.98;1.20;;;25.10;47.90;;;;;;5011921;28;21946;-75
2022/05/16 10:08:04;;;;;;;4.72;1.00;;;25.20;49.30;;;;;;5022208;28;20092;-74
2022/05/16 10:10:36;;;;;;;1.63;1.02;;;25.30;48.50;;;;;;5028725;28;20053;-76
2022/05/16 10:13:04;;;;;;;3.35;1.20;;;25.30;48.20;;;;;;4995235;28;20054;-75
2022/05/16 10:15:33;;;;;;;6.22;1.08;;;25.30;49.00;;;;;;5011133;28;20579;-75
2022/05/16 10:18:02;;;;;;;4.88;1.33;;;25.30;46.80;;;;;;4993191;28;20060;-76
2022/05/16 10:20:34;;;;;;;4.55;1.02;;;25.20;47.20;;;;;;4992209;28;20044;-76
2022/05/16 10:23:06;;;;;;;6.63;2.08;;;25.00;47.00;;;;;;4991824;28;20045;-76
2022/05/16 10:25:45;;;;;;;3.40;1.45;;;25.10;48.50;;;;;;4997235;28;20077;-76
2022/05/16 10:28:19;;;;;;;2.97;1.23;;;25.30;48.20;;;;;;4993158;28;20647;-76
2022/05/16 10:33:35;;;;;;;2.42;0.98;;;25.30;46.80;;;;;;4996330;28;20044;-76
2022/05/16 10:36:10;;;;;;;3.83;1.20;;;25.20;46.50;;;;;;4992971;28;20662;-76
2022/05/16 10:39:13;;;;;;;3.97;1.30;;;25.10;47.90;;;;;;5001524;28;20754;-76
2022/05/16 10:42:06;;;;;;;3.60;1.15;;;24.80;48.70;;;;;;5028000;28;20079;-76
2022/05/16 10:44:45;;;;;;;3.95;1.35;;;24.60;48.50;;;;;;4996386;28;20123;-76
2022/05/16 10:47:27;;;;;;;3.55;0.93;;;24.50;48.30;;;;;;5024579;28;23391;-76
2022/05/16 10:50:03;;;;;;;;;;;24.50;48.30;;;;;;4987261;28;20053;-76
2022/05/16 10:52:36;;;;;;;4.30;1.30;;;24.60;47.60;;;;;;4993113;28;19929;-76
2022/05/16 10:55:04;;;;;;;2.97;1.40;;;24.60;49.00;;;;;;4982521;28;20041;-75
2022/05/16 10:57:53;;;;;;;6.00;1.83;;;24.70;46.80;;;;;;5027186;28;20045;-76
2022/05/16 11:00:31;;;;;;;3.67;1.50;;;24.70;47.00;;;;;;4995410;28;20049;-75
2022/05/16 11:03:17;;;;;;;7.15;1.40;;;24.80;47.50;;;;;;4992849;28;20065;-76
2022/05/16 11:05:54;;;;;;;2.17;0.90;;;24.90;48.60;;;;;;4995057;28;20049;-75
2022/05/16 11:08:53;;;;;;;5.25;1.60;;;25.00;48.60;;;;;;4996439;28;20036;-76
2022/05/16 11:11:26;;;;;;;3.65;1.17;;;25.20;48.30;;;;;;4999710;28;20061;-76
2022/05/16 11:14:11;;;;;;;2.40;1.20;;;25.40;47.30;;;;;;4989558;28;20398;-76
2022/05/16 11:16:39;;;;;;;4.25;1.42;;;25.30;45.20;;;;;;4984480;28;20404;-76
2022/05/16 11:19:39;;;;;;;3.65;1.38;;;25.50;47.00;;;;;;4993484;28;20045;-76
2022/05/16 11:22:14;;;;;;;4.30;1.67;;;25.50;46.80;;;;;;4994157;28;20056;-76
2022/05/16 11:24:51;;;;;;;3.70;1.50;;;25.40;47.50;;;;;;4988060;28;20049;-76
2022/05/16 11:27:31;;;;;;;2.92;1.33;;;25.40;48.10;;;;;;4982668;28;20150;-76
2022/05/16 11:30:07;;;;;;;5.63;2.15;;;25.50;48.40;;;;;;4997408;28;20048;-76
2022/05/16 11:32:54;;;;;;;2.75;1.30;;;25.30;46.70;;;;;;5010997;28;20219;-76
2022/05/16 11:35:33;;;;;;;3.47;1.67;;;25.20;49.20;;;;;;4994298;28;20419;-76
2022/05/16 11:38:22;;;;;;;4.72;2.10;;;25.40;50.00;;;;;;4994893;28;20087;-76
2022/05/16 11:41:15;;;;;;;3.47;1.60;;;25.50;49.90;;;;;;4996279;28;20045;-76
2022/05/16 11:43:48;;;;;;;2.65;1.45;;;25.50;46.60;;;;;;4995845;28;20088;-76
2022/05/16 11:46:42;;;;;;;5.15;1.83;;;25.50;47.30;;;;;;4995614;28;22025;-75
2022/05/16 11:49:36;;;;;;;5.15;1.80;;;25.70;48.10;;;;;;4994315;28;20135;-76
2022/05/16 11:52:51;;;;;;;5.97;1.67;;;25.80;46.60;;;;;;4996139;28;20048;-76
2022/05/16 12:01:00;;;;;;;2.97;1.40;;;25.80;48.80;;;;;;4995403;28;21946;-75
2022/05/16 12:03:39;;;;;;;3.85;1.27;;;25.90;49.60;;;;;;4987433;28;20053;-76
2022/05/16 12:06:34;;;;;;;5.95;1.67;;;26.10;49.10;;;;;;4995946;28;20415;-76
2022/05/16 12:09:24;;;;;;;4.15;1.70;;;25.90;46.70;;;;;;5001796;28;20060;-74
2022/05/16 12:12:02;;;;;;;3.58;1.92;;;25.90;46.10;;;;;;5026300;28;20179;-74
2022/05/16 12:14:34;;;;;;;3.20;1.58;;;26.00;46.20;;;;;;4993401;28;20123;-75
2022/05/16 12:17:07;;;;;;;;;;;26.00;47.50;;;;;;5006221;28;20056;-74
2022/05/16 12:19:40;;;;;;;5.50;2.05;;;26.10;47.70;;;;;;4982267;28;19960;-74
2022/05/16 12:22:17;;;;;;;2.97;1.40;;;26.20;48.30;;;;;;5013082;28;20098;-74
2022/05/16 12:24:58;;;;;;;2.92;1.65;;;26.10;47.70;;;;;;5005663;28;20061;-74
2022/05/16 12:27:35;;;;;;;4.35;1.80;;;26.20;47.40;;;;;;4972564;28;20048;-74
2022/05/16 12:30:37;;;;;;;5.43;2.03;;;26.20;46.70;;;;;;4993419;28;20182;-74
2022/05/16 12:33:26;;;;;;;4.47;2.03;;;26.50;48.30;;;;;;4987070;28;20385;-75
2022/05/16 12:35:54;;;;;;;10.05;1.90;;;26.60;48.60;;;;;;5003412;28;20837;-74
2022/05/16 12:38:22;;;;;;;4.35;1.55;;;26.70;48.30;;;;;;4985029;28;20037;-74
2022/05/16 12:41:11;;;;;;;5.85;1.60;;;26.90;49.40;;;;;;4992584;28;20749;-74
2022/05/16 12:43:57;;;;;;;3.22;1.60;;;26.80;48.00;;;;;;4994663;28;20633;-75
2022/05/16 12:46:55;;;;;;;4.75;1.38;;;26.50;47.10;;;;;;4983659;28;20605;-73
2022/05/16 12:49:43;;;;;;;5.38;1.60;;;26.20;48.10;;;;;;4970117;28;21455;-74
2022/05/16 12:52:37;;;;;;;3.60;1.23;;;26.20;48.90;;;;;;4971545;28;20057;-74
2022/05/16 12:55:38;;;;;;;3.92;1.48;;;26.50;49.10;;;;;;5003662;28;20147;-75
2022/05/16 12:58:14;;;;;;;5.60;1.55;;;26.70;48.20;;;;;;4987048;28;20053;-73
2022/05/16 13:01:10;;;;;;;4.72;1.85;;;26.80;47.00;;;;;;4987466;28;20044;-73
2022/05/16 13:03:59;;;;;;;3.63;1.40;;;26.70;46.50;;;;;;4968154;28;20100;-74
2022/05/16 13:06:43;;;;;;;3.92;1.38;;;26.70;47.70;;;;;;4986816;28;20079;-74
2022/05/16 13:09:10;;;;;;;4.05;1.40;;;26.80;48.20;;;;;;4994707;28;22031;-74
2022/05/16 13:11:56;;;;;;;3.90;1.60;;;26.80;47.80;;;;;;4991755;28;20045;-74
2022/05/16 13:14:42;;;;;;;4.82;1.83;;;26.80;47.00;;;;;;4990090;28;20045;-74
2022/05/16 13:17:25;;;;;;;2.78;1.88;;;26.70;46.40;;;;;;5008523;28;20083;-74
2022/05/16 13:19:54;;;;;;;4.22;1.60;;;26.70;48.20;;;;;;5022730;28;20045;-74
2022/05/16 13:22:23;;;;;;;4.70;1.60;;;26.80;48.10;;;;;;5027576;28;20087;-74
2022/05/16 13:24:55;;;;;;;5.13;1.98;;;26.90;47.70;;;;;;4996543;28;20048;-75
2022/05/16 13:30:18;;;;;;;5.00;1.77;;;26.70;47.90;;;;;;4998454;28;20045;-74
2022/05/16 13:32:46;;;;;;;5.88;2.00;;;26.80;47.80;;;;;;4996912;28;20044;-75
2022/05/16 13:35:36;;;;;;;3.92;1.65;;;26.80;49.90;;;;;;4995789;28;20049;-75
2022/05/16 13:38:05;;;;;;;6.97;1.70;;;26.80;47.70;;;;;;4992760;28;20530;-74
2022/05/16 13:40:38;;;;;;;6.57;1.48;;;26.70;47.90;;;;;;4997840;28;20696;-74
2022/05/16 13:43:16;;;;;;;8.15;1.88;;;26.70;47.70;;;;;;5014031;28;20065;-75
2022/05/16 13:45:43;;;;;;;5.50;1.45;;;26.70;48.40;;;;;;4999255;28;20189;-75
2022/05/16 13:48:16;;;;;;;5.18;1.55;;;26.80;48.10;;;;;;4998462;28;20052;-74
2022/05/16 13:50:47;;;;;;;6.75;2.30;;;26.90;49.50;;;;;;4999365;28;20049;-74
2022/05/16 13:53:17;;;;;;;6.53;2.20;;;26.90;48.30;;;;;;5014177;28;20041;-74
2022/05/16 13:55:47;;;;;;;6.00;1.83;;;26.90;50.50;;;;;;4998496;28;20044;-74